createdAt,value
2023-04-14T00:01:53.475Z,7.90
2023-04-14T00:04:26.869Z,7.97
2023-04-14T00:06:58.734Z,7.95
2023-04-14T00:09:30.265Z,7.20
2023-04-14T00:12:01.454Z,6.28
2023-04-14T00:14:31.774Z,7.55
2023-04-14T00:17:02.189Z,8.52
2023-04-14T00:19:35.092Z,7.60
2023-04-14T00:22:05.461Z,7.25
2023-04-14T00:24:40.890Z,7.80
2023-04-14T00:27:11.256Z,5.85
2023-04-14T00:29:41.714Z,8.20
2023-04-14T00:32:12.257Z,5.03
2023-04-14T00:34:45.195Z,7.38
2023-04-14T00:37:15.621Z,4.97
2023-04-14T00:39:46.123Z,6.20
2023-04-14T00:42:16.465Z,6.55
2023-04-14T00:44:48.220Z,6.93
2023-04-14T00:47:18.702Z,6.07
2023-04-14T00:49:51.654Z,5.45
2023-04-14T00:52:22.420Z,3.60
2023-04-14T00:54:55.538Z,4.97
2023-04-14T00:57:26.002Z,8.60
2023-04-14T00:59:56.676Z,6.70
2023-04-14T01:02:27.585Z,8.23
2023-04-14T01:05:01.278Z,6.80
2023-04-14T01:07:31.990Z,6.15
2023-04-14T01:10:02.314Z,8.13
2023-04-14T01:12:38.545Z,5.45
2023-04-14T01:15:15.068Z,5.60
2023-04-14T01:17:50.071Z,3.33
2023-04-14T01:20:26.419Z,4.68
2023-04-14T01:22:59.176Z,7.43
2023-04-14T01:25:37.402Z,4.10
2023-04-14T01:28:17.472Z,5.60
2023-04-14T01:30:54.323Z,6.05
2023-04-14T01:33:29.058Z,5.30
2023-04-14T01:36:00.778Z,6.30
2023-04-14T01:38:32.418Z,5.35
2023-04-14T01:41:04.385Z,4.95
2023-04-14T01:43:35.786Z,8.50
2023-04-14T01:46:08.620Z,9.98
2023-04-14T01:48:41.722Z,8.70
2023-04-14T01:51:13.058Z,6.32
2023-04-14T01:56:14.896Z,7.47
2023-04-14T02:01:15.295Z,6.18
2023-04-14T02:03:49.129Z,7.85
2023-04-14T02:06:20.800Z,6.15
2023-04-14T02:08:51.823Z,5.10
2023-04-14T02:11:23.982Z,5.00
2023-04-14T02:13:55.219Z,8.38
2023-04-14T02:16:26.449Z,3.97
2023-04-14T02:18:59.990Z,6.05
2023-04-14T02:21:31.323Z,6.03
2023-04-14T02:24:01.848Z,6.53
2023-04-14T02:26:34.360Z,3.92
2023-04-14T02:29:06.634Z,10.50
2023-04-14T02:31:37.838Z,7.78
2023-04-14T02:34:12.311Z,8.38
2023-04-14T02:36:43.642Z,7.43
2023-04-14T02:41:47.336Z,5.47
2023-04-14T02:44:21.598Z,4.82
2023-04-14T02:46:55.204Z,7.47
2023-04-14T02:49:28.805Z,5.60
2023-04-14T02:52:00.067Z,5.32
2023-04-14T02:54:31.158Z,3.72
2023-04-14T02:57:02.153Z,4.93
2023-04-14T02:59:33.763Z,7.22
2023-04-14T03:02:06.372Z,7.00
2023-04-14T03:04:41.365Z,5.25
2023-04-14T03:07:12.423Z,6.38
2023-04-14T03:09:43.485Z,5.40
2023-04-14T03:12:15.368Z,5.68
2023-04-14T03:14:46.751Z,7.32
2023-04-14T03:19:52.904Z,8.52
2023-04-14T03:22:24.464Z,6.03
2023-04-14T03:24:58.448Z,4.10
2023-04-14T03:27:30.413Z,6.60
2023-04-14T03:30:02.750Z,8.40
2023-04-14T03:32:35.949Z,6.50
2023-04-14T03:35:09.679Z,3.88
2023-04-14T03:37:40.966Z,4.40
2023-04-14T03:40:12.156Z,4.35
2023-04-14T03:42:44.849Z,6.20
2023-04-14T03:45:17.408Z,7.55
2023-04-14T03:47:47.701Z,6.45
2023-04-14T03:50:23.318Z,9.43
2023-04-14T03:52:55.346Z,4.10
2023-04-14T03:55:27.235Z,5.63
2023-04-14T03:57:58.442Z,7.13
2023-04-14T04:00:29.413Z,4.22
2023-04-14T04:03:00.321Z,4.38
2023-04-14T04:05:33.441Z,9.30
2023-04-14T04:08:05.147Z,5.70
2023-04-14T04:10:37.160Z,5.47
2023-04-14T04:13:10.448Z,6.20
2023-04-14T04:15:41.748Z,5.05
2023-04-14T04:18:12.516Z,3.17
2023-04-14T04:20:46.450Z,3.47
2023-04-14T04:23:17.436Z,3.65
2023-04-14T04:25:48.150Z,5.65
2023-04-14T04:28:18.542Z,5.22
2023-04-14T04:30:49.614Z,5.97
2023-04-14T04:33:20.601Z,8.55
2023-04-14T04:35:54.138Z,5.32
2023-04-14T04:38:24.424Z,4.28
2023-04-14T04:40:54.751Z,5.47
2023-04-14T04:43:25.056Z,8.43
2023-04-14T04:46:17.436Z,5.80
2023-04-14T04:48:47.763Z,11.35
2023-04-14T04:51:20.741Z,3.95
2023-04-14T04:53:51.051Z,6.50
2023-04-14T04:56:21.980Z,3.40
2023-04-14T04:58:52.348Z,4.63
2023-04-14T05:01:22.912Z,7.25
2023-04-14T05:03:53.278Z,6.85
2023-04-14T05:06:26.786Z,4.85
2023-04-14T05:08:57.374Z,5.22
2023-04-14T05:11:27.874Z,4.55
2023-04-14T05:13:58.135Z,7.10
2023-04-14T05:16:28.539Z,7.57
2023-04-14T05:18:59.020Z,6.53
2023-04-14T05:21:33.112Z,4.85
2023-04-14T05:24:03.663Z,7.30
2023-04-14T05:26:48.810Z,5.72
2023-04-14T05:29:24.271Z,6.07
2023-04-14T05:31:54.608Z,7.97
2023-04-14T05:34:24.875Z,6.63
2023-04-14T05:36:57.831Z,7.15
2023-04-14T05:39:28.138Z,6.45
2023-04-14T05:41:59.869Z,5.57
2023-04-14T05:44:30.256Z,6.15
2023-04-14T05:47:00.744Z,8.57
2023-04-14T05:49:31.390Z,4.47
2023-04-14T05:52:04.547Z,3.17
2023-04-14T05:54:34.905Z,7.78
2023-04-14T05:57:05.439Z,8.00
2023-04-14T05:59:35.804Z,6.13
2023-04-14T06:02:07.742Z,7.32
2023-04-14T06:04:38.377Z,5.63
2023-04-14T06:07:11.467Z,9.60
2023-04-14T06:09:42.826Z,5.13
2023-04-14T06:14:43.492Z,6.55
2023-04-14T06:17:13.836Z,6.18
2023-04-14T06:19:44.273Z,8.10
2023-04-14T06:22:19.748Z,6.68
2023-04-14T06:24:50.212Z,5.05
2023-04-14T06:27:20.577Z,8.40
2023-04-14T06:29:51.874Z,8.73
2023-04-14T06:34:53.474Z,6.00
2023-04-14T06:37:27.982Z,7.45
2023-04-14T06:39:58.263Z,6.78
2023-04-14T06:42:28.622Z,4.63
2023-04-14T06:44:58.909Z,6.10
2023-04-14T06:47:29.332Z,4.85
2023-04-14T06:49:59.672Z,3.20
2023-04-14T06:52:32.644Z,6.65
2023-04-14T06:55:02.985Z,6.68
2023-04-14T06:57:33.360Z,6.90
2023-04-14T07:00:04.502Z,5.72
2023-04-14T07:02:34.968Z,5.35
2023-04-14T07:05:05.922Z,4.10
2023-04-14T07:07:41.122Z,5.95
2023-04-14T07:10:12.828Z,6.68
2023-04-14T07:12:43.194Z,6.22
2023-04-14T07:15:14.455Z,5.57
2023-04-14T07:17:44.852Z,7.18
2023-04-14T07:20:15.619Z,7.93
2023-04-14T07:22:48.869Z,4.68
2023-04-14T07:25:19.262Z,6.93
2023-04-14T07:28:02.129Z,6.63
2023-04-14T07:30:33.746Z,3.03
2023-04-14T07:33:05.131Z,5.05
2023-04-14T07:35:35.554Z,4.65
2023-04-14T07:38:08.556Z,5.32
2023-04-14T07:40:40.140Z,5.70
2023-04-14T07:43:10.550Z,5.30
2023-04-14T07:45:40.895Z,4.35
2023-04-14T07:48:11.332Z,6.68
2023-04-14T07:50:41.790Z,4.90
2023-04-14T07:53:14.826Z,5.40
2023-04-14T07:55:45.208Z,4.55
2023-04-14T07:58:15.927Z,5.07
2023-04-14T08:00:46.368Z,4.38
2023-04-14T08:03:17.198Z,5.32
2023-04-14T08:05:48.015Z,5.68
2023-04-14T08:08:21.006Z,4.25
2023-04-14T08:10:51.330Z,7.47
2023-04-14T08:13:21.679Z,5.07
2023-04-14T08:15:52.017Z,4.18
2023-04-14T08:18:22.479Z,8.43
2023-04-14T08:20:52.793Z,5.07
2023-04-14T08:23:25.707Z,5.63
2023-04-14T08:25:55.994Z,4.22
2023-04-14T08:28:27.717Z,3.42
2023-04-14T08:30:58.131Z,3.00
2023-04-14T08:33:28.536Z,2.80
2023-04-14T08:36:00.266Z,2.90
2023-04-14T08:38:33.702Z,3.75
2023-04-14T08:41:05.195Z,4.22
2023-04-14T08:43:35.618Z,3.22
2023-04-14T08:46:07.529Z,4.35
2023-04-14T08:48:39.384Z,3.55
2023-04-14T08:51:11.478Z,3.45
2023-04-14T08:53:46.085Z,3.85
2023-04-14T08:56:18.059Z,4.68
2023-04-14T08:58:48.682Z,4.40
2023-04-14T09:01:19.457Z,1.95
2023-04-14T09:03:51.309Z,4.32
2023-04-14T09:06:22.354Z,6.15
2023-04-14T09:08:55.344Z,3.05
2023-04-14T09:11:26.344Z,4.60
2023-04-14T09:13:57.310Z,2.47
2023-04-14T09:16:27.712Z,3.78
2023-04-14T09:21:52.248Z,3.35
2023-04-14T09:24:32.162Z,5.03
2023-04-14T09:27:05.325Z,4.70
2023-04-14T09:29:36.737Z,2.17
2023-04-14T09:32:07.783Z,2.35
2023-04-14T09:34:38.078Z,2.10
2023-04-14T09:37:09.884Z,3.40
2023-04-14T09:39:51.588Z,3.33
2023-04-14T09:42:22.286Z,2.85
2023-04-14T09:44:59.301Z,4.13
2023-04-14T09:47:30.379Z,3.63
2023-04-14T09:50:01.349Z,1.50
2023-04-14T09:52:40.540Z,2.72
2023-04-14T09:55:14.504Z,3.80
2023-04-14T09:57:47.612Z,3.42
2023-04-14T10:00:25.658Z,2.25
2023-04-14T10:02:58.509Z,2.88
2023-04-14T10:05:33.831Z,2.88
2023-04-14T10:08:06.822Z,2.88
2023-04-14T10:10:40.048Z,3.13
2023-04-14T10:13:15.182Z,2.85
2023-04-14T10:15:46.092Z,3.00
2023-04-14T10:18:16.486Z,2.63
2023-04-14T10:23:18.043Z,2.80
2023-04-14T10:25:53.054Z,2.75
2023-04-14T10:28:23.352Z,2.22
2023-04-14T10:30:54.581Z,2.85
2023-04-14T10:33:24.929Z,3.22
2023-04-14T10:35:57.380Z,3.90
2023-04-14T10:38:40.140Z,2.33
2023-04-14T10:41:13.383Z,3.45
2023-04-14T10:43:44.140Z,1.73
2023-04-14T10:46:15.338Z,3.78
2023-04-14T10:48:50.052Z,2.80
2023-04-14T10:51:21.656Z,3.25
2023-04-14T10:53:55.761Z,2.15
2023-04-14T10:56:29.513Z,2.45
2023-04-14T10:59:00.284Z,3.95
2023-04-14T11:01:33.016Z,3.80
2023-04-14T11:04:15.056Z,2.15
2023-04-14T11:06:59.285Z,3.40
2023-04-14T11:09:39.836Z,2.65
2023-04-14T11:12:28.118Z,1.98
2023-04-14T11:15:06.584Z,2.00
2023-04-14T11:17:41.273Z,3.25
2023-04-14T11:20:18.141Z,3.15
2023-04-14T11:25:23.051Z,2.80
2023-04-14T11:27:57.332Z,3.10
2023-04-14T11:30:28.201Z,2.38
2023-04-14T11:32:59.283Z,2.67
2023-04-14T11:35:31.503Z,2.35
2023-04-14T11:38:03.071Z,3.67
2023-04-14T11:40:36.073Z,2.90
2023-04-14T11:43:09.586Z,2.67
2023-04-14T11:45:45.600Z,2.78
2023-04-14T11:48:16.289Z,3.22
2023-04-14T11:50:46.811Z,2.95
2023-04-14T11:53:17.645Z,2.33
2023-04-14T11:55:49.135Z,2.83
2023-04-14T11:58:24.741Z,3.30
2023-04-14T12:00:56.176Z,4.50
2023-04-14T12:03:29.721Z,2.40
2023-04-14T12:08:55.384Z,2.55
2023-04-14T12:11:25.809Z,1.98
2023-04-14T12:13:59.077Z,3.13
2023-04-14T12:16:29.561Z,5.28
2023-04-14T12:19:00.496Z,3.67
2023-04-14T12:21:31.165Z,2.13
2023-04-14T12:24:01.632Z,2.03
2023-04-14T12:26:32.808Z,2.17
2023-04-14T12:29:06.436Z,2.53
2023-04-14T12:31:36.780Z,1.58
2023-04-14T12:34:07.252Z,2.25
2023-04-14T12:36:49.538Z,1.40
2023-04-14T12:39:22.373Z,3.20
2023-04-14T12:41:52.814Z,1.17
2023-04-14T12:44:26.381Z,2.55
2023-04-14T12:46:57.867Z,2.22
2023-04-14T12:49:39.559Z,1.88
2023-04-14T12:52:10.487Z,4.22
2023-04-14T12:54:52.318Z,2.60
2023-04-14T12:57:23.748Z,1.58
2023-04-14T12:59:56.694Z,3.38
2023-04-14T13:02:27.440Z,2.47
2023-04-14T13:04:58.071Z,1.45
2023-04-14T13:07:28.368Z,3.08
2023-04-14T13:09:58.926Z,2.88
2023-04-14T13:12:29.224Z,3.53
2023-04-14T13:15:02.286Z,2.15
2023-04-14T13:17:32.790Z,4.57
2023-04-14T13:20:03.241Z,1.63
2023-04-14T13:22:33.619Z,2.30
2023-04-14T13:25:04.485Z,1.88
2023-04-14T13:27:34.822Z,3.47
2023-04-14T13:30:08.144Z,2.00
2023-04-14T13:32:38.491Z,2.35
2023-04-14T13:35:09.452Z,1.33
2023-04-14T13:37:39.814Z,2.92
2023-04-14T13:40:11.352Z,4.10
2023-04-14T13:42:41.657Z,3.17
2023-04-14T13:45:15.149Z,2.58
2023-04-14T13:47:45.481Z,1.73
2023-04-14T13:50:15.852Z,1.40
2023-04-14T13:52:46.239Z,3.05
2023-04-14T13:55:16.575Z,2.15
2023-04-14T13:57:46.937Z,1.33
2023-04-14T14:00:20.566Z,1.55
2023-04-14T14:02:52.060Z,1.77
2023-04-14T14:05:22.587Z,2.00
2023-04-14T14:07:52.966Z,1.30
2023-04-14T14:10:23.495Z,1.08
2023-04-14T14:12:54.150Z,1.67
2023-04-14T14:15:27.201Z,3.42
2023-04-14T14:17:57.566Z,3.53
2023-04-14T14:20:27.999Z,1.48
2023-04-14T14:22:58.300Z,1.58
2023-04-14T14:25:28.656Z,2.30
2023-04-14T14:27:59.532Z,2.08
2023-04-14T14:33:02.543Z,2.08
2023-04-14T14:35:32.897Z,3.00
2023-04-14T14:38:03.246Z,3.60
2023-04-14T14:40:33.599Z,2.45
2023-04-14T14:43:03.913Z,3.97
2023-04-14T14:45:34.694Z,2.13
2023-04-14T14:50:37.880Z,3.13
2023-04-14T14:53:08.150Z,2.45
2023-04-14T14:55:38.512Z,2.63
2023-04-14T14:58:09.713Z,2.20
2023-04-14T15:00:40.021Z,2.85
2023-04-14T15:03:10.600Z,2.60
2023-04-14T15:05:43.986Z,1.98
2023-04-14T15:08:14.728Z,1.70
2023-04-14T15:10:45.087Z,2.95
2023-04-14T15:13:15.417Z,2.53
2023-04-14T15:15:45.760Z,1.40
2023-04-14T15:18:16.265Z,7.80
2023-04-14T15:20:50.465Z,2.22
2023-04-14T15:23:20.792Z,2.65
2023-04-14T15:25:51.314Z,2.60
2023-04-14T15:28:21.943Z,3.88
2023-04-14T15:30:52.312Z,2.03
2023-04-14T15:33:22.674Z,1.45
2023-04-14T15:35:55.839Z,3.03
2023-04-14T15:38:26.138Z,3.20
2023-04-14T15:40:57.211Z,2.10
2023-04-14T15:43:27.916Z,1.52
2023-04-14T15:45:58.439Z,1.55
2023-04-14T15:48:29.633Z,3.33
2023-04-14T15:51:02.749Z,2.53
2023-04-14T15:53:33.034Z,2.38
2023-04-14T15:56:03.956Z,2.67
2023-04-14T15:58:34.225Z,2.72
2023-04-14T16:01:04.625Z,2.22
2023-04-14T16:03:35.190Z,2.53
2023-04-14T16:08:40.119Z,3.42
2023-04-14T16:11:10.795Z,2.35
2023-04-14T16:13:41.078Z,1.17
2023-04-14T16:16:11.468Z,3.17
2023-04-14T16:18:41.806Z,2.33
2023-04-14T16:21:12.384Z,1.75
2023-04-14T16:23:45.706Z,1.80
2023-04-14T16:26:16.062Z,2.22
2023-04-14T16:28:46.404Z,1.83
2023-04-14T16:31:17.861Z,1.73
2023-04-14T16:33:48.314Z,4.13
2023-04-14T16:36:19.600Z,3.35
2023-04-14T16:38:52.949Z,2.88
2023-04-14T16:41:23.383Z,1.63
2023-04-14T16:43:53.677Z,1.55
2023-04-14T16:46:25.034Z,2.35
2023-04-14T16:48:56.468Z,2.08
2023-04-14T16:51:27.798Z,2.05
2023-04-14T16:54:01.027Z,3.72
2023-04-14T16:56:31.512Z,1.38
2023-04-14T16:59:01.980Z,1.10
2023-04-14T17:01:33.048Z,2.38
2023-04-14T17:04:04.220Z,2.53
2023-04-14T17:06:35.085Z,1.25
2023-04-14T17:09:08.137Z,2.08
2023-04-14T17:11:39.361Z,3.03
2023-04-14T17:14:09.714Z,2.97
2023-04-14T17:16:40.085Z,4.68
2023-04-14T17:19:10.849Z,1.92
2023-04-14T17:21:44.729Z,2.70
2023-04-14T17:24:17.628Z,3.83
2023-04-14T17:26:48.096Z,1.98
2023-04-14T17:29:18.424Z,1.67
2023-04-14T17:31:49.124Z,3.33
2023-04-14T17:34:20.853Z,2.30
2023-04-14T17:36:51.751Z,4.18
2023-04-14T17:42:01.667Z,1.17
2023-04-14T17:44:34.842Z,2.42
2023-04-14T17:47:13.058Z,3.08
2023-04-14T17:49:44.094Z,1.73
2023-04-14T17:52:14.780Z,1.42
2023-04-14T17:54:45.080Z,4.35
2023-04-14T17:57:18.239Z,2.20
2023-04-14T17:59:48.747Z,3.03
2023-04-14T18:02:19.163Z,2.35
2023-04-14T18:04:49.705Z,2.75
2023-04-14T18:07:20.103Z,1.85
2023-04-14T18:09:50.454Z,2.42
2023-04-14T18:12:24.298Z,3.10
2023-04-14T18:14:54.785Z,2.65
2023-04-14T18:17:25.556Z,1.52
2023-04-14T18:19:59.679Z,2.67
2023-04-14T18:22:31.184Z,2.22
2023-04-14T18:25:01.701Z,3.25
2023-04-14T18:30:08.447Z,2.05
2023-04-14T18:35:09.516Z,1.67
2023-04-14T18:42:43.564Z,1.98
2023-04-14T18:45:14.422Z,3.72
2023-04-14T18:50:16.686Z,2.53
2023-04-14T18:52:47.256Z,2.75
2023-04-14T18:55:18.840Z,4.47
2023-04-14T18:57:52.615Z,3.08
2023-04-14T19:00:24.285Z,2.60
2023-04-14T19:02:54.906Z,3.30
2023-04-14T19:05:25.481Z,2.42
2023-04-14T19:07:55.800Z,3.20
2023-04-14T19:10:26.140Z,3.33
2023-04-14T19:12:59.107Z,3.35
2023-04-14T19:15:29.555Z,6.97
2023-04-14T19:17:59.907Z,5.47
2023-04-14T19:20:30.352Z,4.40
2023-04-14T19:23:00.712Z,4.30
2023-04-14T19:25:31.060Z,2.15
2023-04-14T19:28:04.313Z,6.93
2023-04-14T19:30:34.696Z,4.43
2023-04-14T19:33:05.193Z,3.75
2023-04-14T19:35:35.605Z,3.15
2023-04-14T19:38:06.113Z,4.40
2023-04-14T19:40:36.419Z,4.50
2023-04-14T19:43:09.352Z,4.72
2023-04-14T19:45:39.663Z,7.50
2023-04-14T19:48:22.714Z,4.50
2023-04-14T19:50:55.128Z,4.05
2023-04-14T19:53:27.503Z,2.50
2023-04-14T19:55:58.418Z,3.08
2023-04-14T20:01:04.894Z,3.45
2023-04-14T20:03:35.384Z,5.78
2023-04-14T20:06:06.346Z,4.47
2023-04-14T20:11:06.811Z,6.15
2023-04-14T20:13:38.575Z,5.00
2023-04-14T20:16:11.535Z,4.10
2023-04-14T20:18:45.463Z,5.18
2023-04-14T20:21:17.013Z,5.25
2023-04-14T20:23:47.380Z,4.63
2023-04-14T20:26:18.366Z,4.70
2023-04-14T20:31:22.422Z,6.80
2023-04-14T20:33:52.916Z,3.08
2023-04-14T20:36:23.679Z,4.97
2023-04-14T20:38:54.007Z,4.25
2023-04-14T20:41:24.282Z,5.00
2023-04-14T20:43:54.658Z,4.85
2023-04-14T20:46:28.159Z,5.78
2023-04-14T20:48:58.609Z,5.90
2023-04-14T20:51:29.235Z,4.97
2023-04-14T20:53:59.655Z,5.00
2023-04-14T20:56:31.023Z,3.88
2023-04-14T20:59:02.070Z,4.80
2023-04-14T21:01:35.248Z,6.95
2023-04-14T21:04:05.791Z,5.90
2023-04-14T21:06:36.394Z,5.18
2023-04-14T21:09:06.780Z,6.18
2023-04-14T21:11:37.190Z,3.40
2023-04-14T21:15:40.104Z,5.60
2023-04-14T21:17:00.535Z,5.72
2023-04-14T21:19:31.401Z,4.07
2023-04-14T21:22:01.886Z,4.85
2023-04-14T21:24:32.293Z,5.57
2023-04-14T21:27:02.942Z,3.95
2023-04-14T21:29:33.441Z,5.35
2023-04-14T21:32:06.962Z,4.35
2023-04-14T21:34:37.516Z,5.28
2023-04-14T21:37:07.898Z,6.65
2023-04-14T21:39:38.284Z,6.60
2023-04-14T21:42:08.617Z,4.30
2023-04-14T21:44:39.004Z,3.95
2023-04-14T21:47:12.013Z,4.28
2023-04-14T21:49:42.327Z,6.65
2023-04-14T21:52:13.121Z,5.28
2023-04-14T21:54:44.560Z,5.13
2023-04-14T21:57:14.875Z,3.80
2023-04-14T21:59:45.198Z,3.28
2023-04-14T22:02:18.167Z,5.05
2023-04-14T22:04:48.834Z,3.83
2023-04-14T22:07:19.219Z,4.80
2023-04-14T22:09:49.943Z,5.22
2023-04-14T22:12:20.256Z,4.22
2023-04-14T22:14:50.725Z,4.85
2023-04-14T22:17:23.697Z,5.93
2023-04-14T22:19:54.075Z,5.93
2023-04-14T22:22:24.649Z,5.60
2023-04-14T22:24:55.000Z,6.50
2023-04-14T22:27:25.321Z,6.88
2023-04-14T22:29:55.929Z,4.75
2023-04-14T22:32:28.917Z,6.10
2023-04-14T22:34:59.258Z,2.97
2023-04-14T22:37:29.596Z,6.38
2023-04-14T22:40:02.241Z,4.47
2023-04-14T22:42:32.764Z,4.47
2023-04-14T22:45:03.188Z,5.13
2023-04-14T22:47:36.113Z,4.40
2023-04-14T22:50:06.687Z,8.20
2023-04-14T22:52:37.874Z,3.90
2023-04-14T22:55:08.594Z,4.55
2023-04-14T22:57:39.051Z,15.32
2023-04-14T23:00:11.827Z,6.20
2023-04-14T23:02:45.728Z,7.90
2023-04-14T23:05:16.806Z,4.53
2023-04-14T23:07:47.332Z,6.95
2023-04-14T23:10:17.654Z,3.95
2023-04-14T23:12:47.941Z,6.38
2023-04-14T23:15:18.306Z,6.15
2023-04-14T23:17:51.299Z,3.92
2023-04-14T23:20:22.152Z,4.72
2023-04-14T23:22:52.782Z,6.22
2023-04-14T23:25:23.133Z,5.68
2023-04-14T23:27:53.448Z,6.05
2023-04-14T23:30:23.810Z,4.32
2023-04-14T23:32:56.752Z,4.18
2023-04-14T23:35:27.098Z,5.40
2023-04-14T23:38:02.498Z,4.05
2023-04-14T23:40:33.337Z,4.35
2023-04-14T23:43:04.033Z,4.32
2023-04-14T23:45:37.433Z,4.47
2023-04-14T23:48:10.625Z,5.75
2023-04-14T23:50:58.943Z,5.22
2023-04-14T23:53:31.512Z,4.05
2023-04-14T23:56:02.065Z,5.45
2023-04-14T23:58:32.689Z,4.50
